Time;durP1;ratioP1;P1;durP2;ratioP2;P2;SDS_P1;SDS_P2;PMS_P1;PMS_P2;Temp;Humidity;BMP_temperature;BMP_pressure;BME280_temperature;BME280_humidity;BME280_pressure;Samples;Min_cycle;Max_cycle;Signal;HPM_P1;HPM_P2
2022/01/28 00:02:32;;;;;;;5.38;1.80;;;;;;;;;;5098461;28;20180;-85
2022/01/28 00:05:00;;;;;;;6.82;2.35;;;;;;;;;;5097845;28;20287;-84
2022/01/28 00:07:28;;;;;;;3.42;1.52;;;;;;;;;;5097153;28;20722;-85
2022/01/28 00:09:56;;;;;;;3.28;1.60;;;;;;;;;;5096179;28;20725;-84
2022/01/28 00:12:24;;;;;;;4.07;1.60;;;;;;;;;;5097499;28;20699;-84
2022/01/28 00:14:55;;;;;;;4.85;2.20;;;;;;;;;;5098261;28;20239;-85
2022/01/28 00:17:59;;;;;;;2.38;1.58;;;;;;;;;;5097434;28;20224;-84
2022/01/28 00:20:58;;;;;;;3.20;1.23;;;;;;;;;;5097272;28;20204;-84
2022/01/28 00:37:26;;;;;;;1.75;1.27;;;;;;;;;;5095059;28;20349;-87
2022/01/28 00:39:55;;;;;;;1.35;1.10;;;;;;;;;;5095109;28;20538;-88
2022/01/28 00:42:22;;;;;;;2.42;1.02;;;;;;;;;;5094897;28;20204;-87
2022/01/28 00:44:49;;;;;;;0.80;0.80;;;;;;;;;;5094926;28;20575;-87
2022/01/28 00:47:17;;;;;;;2.40;1.17;;;;;;;;;;5095027;28;20270;-87
2022/01/28 00:49:44;;;;;;;1.45;1.35;;;;;;;;;;5078609;28;20664;-88
2022/01/28 00:52:12;;;;;;;2.60;1.15;;;;;;;;;;5074258;28;20304;-88
2022/01/28 00:54:39;;;;;;;2.75;2.25;;;;;;;;;;5077567;28;20205;-87
2022/01/28 00:57:08;;;;;;;2.53;2.03;;;;;;;;;;5078582;28;20217;-87
2022/01/28 00:59:35;;;;;;;2.90;1.95;;;;;;;;;;5078990;28;20188;-86
2022/01/28 01:02:02;;;;;;;3.08;1.50;;;;;;;;;;5075484;28;20204;-86
2022/01/28 01:04:30;;;;;;;20.98;2.55;;;;;;;;;;5073936;28;20213;-86
2022/01/28 01:06:57;;;;;;;3.97;1.60;;;;;;;;;;5073433;28;20217;-87
2022/01/28 01:09:24;;;;;;;12.70;3.67;;;;;;;;;;5073953;28;20201;-86
2022/01/28 01:11:52;;;;;;;7.05;2.10;;;;;;;;;;5073899;28;20197;-86
2022/01/28 01:14:20;;;;;;;4.97;1.75;;;;;;;;;;5073755;28;20613;-87
2022/01/28 01:17:08;;;;;;;6.28;1.65;;;;;;;;;;5073727;28;20239;-87
2022/01/28 01:19:40;;;;;;;4.07;1.67;;;;;;;;;;5087226;28;20200;-86
2022/01/28 01:22:09;;;;;;;7.60;1.45;;;;;;;;;;5093644;28;20199;-86
2022/01/28 01:24:47;;;;;;;8.75;1.85;;;;;;;;;;5093764;28;20192;-86
2022/01/28 01:27:15;;;;;;;3.03;1.55;;;;;;;;;;5093489;28;20234;-86
2022/01/28 01:29:45;;;;;;;5.07;1.55;;;;;;;;;;5093911;28;20294;-87
2022/01/28 01:32:15;;;;;;;6.88;2.38;;;;;;;;;;5093171;28;20192;-88
2022/01/28 01:34:43;;;;;;;8.30;2.08;;;;;;;;;;5093572;28;20268;-86
2022/01/28 01:37:10;;;;;;;4.60;1.63;;;;;;;;;;5093181;28;20922;-87
2022/01/28 01:39:40;;;;;;;4.85;2.20;;;;;;;;;;5093262;28;20204;-87
2022/01/28 01:42:17;;;;;;;6.03;1.90;;;;;;;;;;5093123;28;20202;-87
2022/01/28 01:45:17;;;;;;;9.85;2.50;;;;;;;;;;5093643;28;20203;-87
2022/01/28 01:53:15;;;;;;;9.25;2.92;;;;;;;;;;5056303;28;20645;-86
2022/01/28 01:55:43;;;;;;;4.43;2.00;;;;;;;;;;5058866;28;20201;-86
2022/01/28 01:58:10;;;;;;;4.85;2.05;;;;;;;;;;5053158;28;20225;-86
2022/01/28 02:00:39;;;;;;;3.42;1.83;;;;;;;;;;5053021;28;20661;-85
2022/01/28 02:03:06;;;;;;;2.47;1.90;;;;;;;;;;5052317;28;20197;-86
2022/01/28 02:05:33;;;;;;;6.50;2.83;;;;;;;;;;5052569;28;20201;-86
2022/01/28 02:08:06;;;;;;;6.45;2.03;;;;;;;;;;5052964;28;20218;-87
2022/01/28 02:10:34;;;;;;;4.03;2.45;;;;;;;;;;5052981;28;20229;-86
2022/01/28 02:13:01;;;;;;;11.02;4.22;;;;;;;;;;5052507;28;20221;-86
2022/01/28 02:15:28;;;;;;;5.40;1.50;;;;;;;;;;5052501;28;20205;-87
2022/01/28 02:17:59;;;;;;;8.18;3.05;;;;;;;;;;5051835;28;20222;-86
2022/01/28 02:20:32;;;;;;;9.35;2.75;;;;;;;;;;5052592;28;20198;-87
2022/01/28 02:23:00;;;;;;;5.55;2.50;;;;;;;;;;5052174;28;20224;-86
2022/01/28 02:25:30;;;;;;;6.82;2.70;;;;;;;;;;5052254;28;20197;-87
2022/01/28 02:28:00;;;;;;;8.15;1.75;;;;;;;;;;5052406;28;20713;-87
2022/01/28 02:30:27;;;;;;;6.13;1.70;;;;;;;;;;5052580;28;20670;-87
2022/01/28 02:33:01;;;;;;;5.70;1.90;;;;;;;;;;5052444;28;20201;-86
2022/01/28 02:35:29;;;;;;;4.72;2.03;;;;;;;;;;5052587;28;20202;-86
2022/01/28 02:37:57;;;;;;;3.83;2.17;;;;;;;;;;5052269;28;20220;-87
2022/01/28 02:40:24;;;;;;;7.35;2.63;;;;;;;;;;5052656;28;20208;-87
2022/01/28 02:42:58;;;;;;;11.02;3.28;;;;;;;;;;5052136;28;20362;-87
2022/01/28 02:45:33;;;;;;;6.85;1.52;;;;;;;;;;5052558;28;20575;-86
2022/01/28 02:48:03;;;;;;;7.13;2.55;;;;;;;;;;5052594;28;20244;-87
2022/01/28 02:50:40;;;;;;;8.38;2.25;;;;;;;;;;5052661;28;20293;-86
2022/01/28 02:53:20;;;;;;;6.55;2.75;;;;;;;;;;5052644;28;20186;-86
2022/01/28 02:55:47;;;;;;;6.70;2.50;;;;;;;;;;5052270;28;20201;-87
2022/01/28 02:58:18;;;;;;;5.47;1.77;;;;;;;;;;5052343;28;20312;-87
2022/01/28 03:00:47;;;;;;;10.85;2.90;;;;;;;;;;5052813;28;20201;-86
2022/01/28 03:03:15;;;;;;;4.32;2.30;;;;;;;;;;5052066;28;20217;-87
2022/01/28 03:05:44;;;;;;;4.97;2.45;;;;;;;;;;5052618;28;20678;-85
2022/01/28 03:08:12;;;;;;;10.80;2.20;;;;;;;;;;5051756;28;20224;-87
2022/01/28 03:10:49;;;;;;;7.28;2.42;;;;;;;;;;5052399;28;20202;-86
2022/01/28 03:13:30;;;;;;;5.00;2.35;;;;;;;;;;5052623;28;20243;-87
2022/01/28 03:16:08;;;;;;;4.70;2.00;;;;;;;;;;5052472;28;20204;-87
2022/01/28 03:18:52;;;;;;;4.80;2.03;;;;;;;;;;5052258;28;20279;-88
2022/01/28 03:21:26;;;;;;;13.45;2.78;;;;;;;;;;5052573;28;20204;-87
2022/01/28 03:23:53;;;;;;;8.82;3.45;;;;;;;;;;5052160;28;20561;-87
2022/01/28 03:26:23;;;;;;;4.40;2.25;;;;;;;;;;5052511;28;20210;-87
2022/01/28 03:28:50;;;;;;;6.07;2.22;;;;;;;;;;5053192;28;20202;-87
2022/01/28 03:31:18;;;;;;;4.70;2.50;;;;;;;;;;5055862;28;20751;-87
2022/01/28 03:33:46;;;;;;;5.55;2.45;;;;;;;;;;5055506;28;20712;-87
2022/01/28 03:36:14;;;;;;;3.58;2.15;;;;;;;;;;5056222;28;20212;-87
2022/01/28 03:38:47;;;;;;;3.70;1.77;;;;;;;;;;5055648;28;20618;-88
2022/01/28 03:41:16;;;;;;;10.13;3.42;;;;;;;;;;5055767;28;20292;-86
2022/01/28 03:43:44;;;;;;;5.18;1.92;;;;;;;;;;5055363;28;20204;-87
2022/01/28 03:46:12;;;;;;;7.10;2.53;;;;;;;;;;5055545;28;20225;-88
2022/01/28 03:48:39;;;;;;;3.90;2.03;;;;;;;;;;5057660;28;20221;-87
2022/01/28 03:51:07;;;;;;;5.93;2.80;;;;;;;;;;5057332;28;20209;-89
2022/01/28 03:53:34;;;;;;;6.20;2.72;;;;;;;;;;5055880;28;20201;-87
2022/01/28 03:56:03;;;;;;;6.53;1.95;;;;;;;;;;5055262;28;20208;-86
2022/01/28 03:58:31;;;;;;;6.75;2.15;;;;;;;;;;5054553;28;20234;-87
2022/01/28 04:00:59;;;;;;;6.78;3.05;;;;;;;;;;5054996;28;20206;-87
2022/01/28 04:03:48;;;;;;;7.40;2.00;;;;;;;;;;5054596;28;20204;-87
2022/01/28 04:11:52;;;;;;;3.80;1.95;;;;;;;;;;5054873;28;20282;-86
2022/01/28 04:14:34;;;;;;;4.50;2.00;;;;;;;;;;5055134;28;20255;-88
2022/01/28 04:17:21;;;;;;;5.82;2.15;;;;;;;;;;5055346;28;20230;-88
2022/01/28 04:19:49;;;;;;;7.05;1.85;;;;;;;;;;5055030;28;20202;-87
2022/01/28 04:22:17;;;;;;;9.07;2.58;;;;;;;;;;5054801;28;20293;-88
2022/01/28 04:24:44;;;;;;;5.25;2.15;;;;;;;;;;5055303;28;20571;-87
2022/01/28 04:27:13;;;;;;;4.88;1.73;;;;;;;;;;5054738;28;20222;-88
2022/01/28 04:29:40;;;;;;;6.88;2.15;;;;;;;;;;5055028;28;20645;-87
2022/01/28 04:32:09;;;;;;;6.25;2.15;;;;;;;;;;5054681;28;20208;-88
2022/01/28 04:34:37;;;;;;;4.55;1.92;;;;;;;;;;5055056;28;20241;-87
2022/01/28 04:37:14;;;;;;;8.07;2.53;;;;;;;;;;5055067;28;20717;-87
2022/01/28 04:39:48;;;;;;;7.60;2.35;;;;;;;;;;5054919;28;20204;-87
2022/01/28 04:42:31;;;;;;;5.13;2.08;;;;;;;;;;5053571;28;20205;-87
2022/01/28 04:45:04;;;;;;;8.70;2.00;;;;;;;;;;5054469;28;21419;-88
2022/01/28 04:47:39;;;;;;;9.18;2.33;;;;;;;;;;5054669;28;20218;-86
2022/01/28 04:50:16;;;;;;;4.93;3.00;;;;;;;;;;5054570;28;20185;-87
2022/01/28 04:56:02;;;;;;;13.65;1.98;;;;;;;;;;4993533;28;20231;-87
2022/01/28 04:58:44;;;;;;;5.38;1.90;;;;;;;;;;5049202;28;20313;-88
2022/01/28 05:01:54;;;;;;;4.70;1.80;;;;;;;;;;5054243;28;20357;-87
2022/01/28 05:04:43;;;;;;;6.00;1.63;;;;;;;;;;5054596;28;20609;-86
2022/01/28 05:07:29;;;;;;;4.70;2.30;;;;;;;;;;5054161;28;20217;-87
2022/01/28 05:26:31;;;;;;;4.40;2.17;;;;;;;;;;5036246;28;20198;-88
2022/01/28 05:28:58;;;;;;;7.05;3.00;;;;;;;;;;5053999;28;20252;-88
2022/01/28 05:31:27;;;;;;;7.88;3.10;;;;;;;;;;5053335;28;20193;-88
2022/01/28 05:33:54;;;;;;;6.07;2.53;;;;;;;;;;5053429;28;20206;-88
2022/01/28 05:36:22;;;;;;;5.03;2.38;;;;;;;;;;5053413;28;20276;-87
2022/01/28 05:38:49;;;;;;;7.18;2.45;;;;;;;;;;5053688;28;20198;-87
2022/01/28 05:41:17;;;;;;;6.13;2.50;;;;;;;;;;5053054;28;20205;-88
2022/01/28 05:43:44;;;;;;;7.47;2.70;;;;;;;;;;5053279;28;20301;-88
2022/01/28 05:46:12;;;;;;;8.80;2.15;;;;;;;;;;5053141;28;20205;-88
2022/01/28 05:48:40;;;;;;;8.55;2.65;;;;;;;;;;5061127;28;20245;-84
2022/01/28 05:51:08;;;;;;;9.93;3.22;;;;;;;;;;5062067;28;20888;-85
2022/01/28 05:53:35;;;;;;;8.70;2.17;;;;;;;;;;5060034;28;20206;-85
2022/01/28 05:56:02;;;;;;;8.85;3.05;;;;;;;;;;5060225;28;20702;-84
2022/01/28 05:58:29;;;;;;;7.13;2.80;;;;;;;;;;5059300;28;20218;-85
2022/01/28 06:00:57;;;;;;;6.18;2.25;;;;;;;;;;5060288;28;20209;-84
2022/01/28 06:03:24;;;;;;;6.70;2.33;;;;;;;;;;5059907;28;20210;-84
2022/01/28 06:05:53;;;;;;;8.07;3.58;;;;;;;;;;5061491;28;20197;-85
2022/01/28 06:08:20;;;;;;;3.33;2.05;;;;;;;;;;5061640;28;20233;-85
2022/01/28 06:10:47;;;;;;;9.43;2.72;;;;;;;;;;5062076;28;20202;-86
2022/01/28 06:13:15;;;;;;;8.57;2.42;;;;;;;;;;5066297;28;20208;-85
2022/01/28 06:15:43;;;;;;;6.65;3.05;;;;;;;;;;5069313;28;20221;-85
2022/01/28 06:18:11;;;;;;;6.20;2.90;;;;;;;;;;5068172;28;20234;-86
2022/01/28 06:20:38;;;;;;;10.20;3.22;;;;;;;;;;5066254;28;20625;-84
2022/01/28 06:23:07;;;;;;;3.97;1.95;;;;;;;;;;5066669;28;20209;-85
2022/01/28 06:25:34;;;;;;;12.15;3.22;;;;;;;;;;5066939;28;20202;-85
2022/01/28 06:28:01;;;;;;;9.18;2.92;;;;;;;;;;5064137;28;20252;-84
2022/01/28 06:30:29;;;;;;;19.13;4.65;;;;;;;;;;5066382;28;20280;-83
2022/01/28 06:32:56;;;;;;;12.77;3.65;;;;;;;;;;5065727;28;20212;-84
2022/01/28 06:35:23;;;;;;;8.80;2.70;;;;;;;;;;5066567;28;20775;-84
2022/01/28 06:37:50;;;;;;;12.77;3.13;;;;;;;;;;5065523;28;20236;-85
2022/01/28 06:40:19;;;;;;;4.43;2.10;;;;;;;;;;5066650;28;20198;-85
2022/01/28 06:42:48;;;;;;;8.80;2.63;;;;;;;;;;5065541;28;20201;-85
2022/01/28 06:45:16;;;;;;;8.38;3.80;;;;;;;;;;5063301;28;20236;-84
2022/01/28 06:47:43;;;;;;;8.70;2.60;;;;;;;;;;5062158;28;20225;-85
2022/01/28 06:50:11;;;;;;;11.70;2.63;;;;;;;;;;5062948;28;20197;-85
2022/01/28 06:52:41;;;;;;;5.32;3.05;;;;;;;;;;5063678;28;20689;-85
2022/01/28 06:55:11;;;;;;;9.05;2.83;;;;;;;;;;5064070;28;20264;-85
2022/01/28 06:57:40;;;;;;;13.68;3.40;;;;;;;;;;5063482;28;20265;-85
2022/01/28 07:00:10;;;;;;;8.48;3.38;;;;;;;;;;5064248;28;20214;-85
2022/01/28 07:02:37;;;;;;;6.25;2.85;;;;;;;;;;5062511;28;20205;-84
2022/01/28 07:05:06;;;;;;;5.57;2.78;;;;;;;;;;5066557;28;20212;-83
2022/01/28 07:07:36;;;;;;;11.30;4.32;;;;;;;;;;5059712;28;20218;-84
2022/01/28 07:10:05;;;;;;;6.45;2.67;;;;;;;;;;5058246;28;20232;-84
2022/01/28 07:12:32;;;;;;;8.63;3.50;;;;;;;;;;5057383;28;20198;-83
2022/01/28 07:15:01;;;;;;;8.20;3.13;;;;;;;;;;5057521;28;20197;-84
2022/01/28 07:17:28;;;;;;;11.75;2.90;;;;;;;;;;5057568;28;20225;-84
2022/01/28 07:19:57;;;;;;;9.18;2.75;;;;;;;;;;5058291;28;20205;-85
2022/01/28 07:22:25;;;;;;;7.00;2.65;;;;;;;;;;5067022;28;20216;-86
2022/01/28 07:24:52;;;;;;;10.70;3.33;;;;;;;;;;5078277;28;20200;-85
2022/01/28 07:27:20;;;;;;;4.53;2.33;;;;;;;;;;5077527;28;20240;-85
2022/01/28 07:29:49;;;;;;;9.07;2.53;;;;;;;;;;5078148;28;20219;-86
2022/01/28 07:32:18;;;;;;;10.73;3.15;;;;;;;;;;5077631;28;20209;-85
2022/01/28 07:34:46;;;;;;;9.23;3.50;;;;;;;;;;5077999;28;20204;-86
2022/01/28 07:37:15;;;;;;;8.35;3.28;;;;;;;;;;5078012;28;20744;-85
2022/01/28 07:39:42;;;;;;;8.18;2.75;;;;;;;;;;5078158;28;20232;-85
2022/01/28 07:42:09;;;;;;;8.25;3.47;;;;;;;;;;5078468;28;20620;-86
2022/01/28 07:44:37;;;;;;;8.48;2.75;;;;;;;;;;5077983;28;20200;-86
2022/01/28 07:47:05;;;;;;;5.28;3.08;;;;;;;;;;5077980;28;20220;-85
2022/01/28 07:49:34;;;;;;;5.88;2.35;;;;;;;;;;5077293;28;20204;-85
2022/01/28 07:52:01;;;;;;;8.63;2.88;;;;;;;;;;5084739;28;20257;-85
2022/01/28 07:54:29;;;;;;;12.30;3.47;;;;;;;;;;5097986;28;20216;-85
2022/01/28 07:56:56;;;;;;;11.75;2.90;;;;;;;;;;5097810;28;20228;-85
2022/01/28 07:59:23;;;;;;;7.10;2.65;;;;;;;;;;5084525;28;20207;-86
2022/01/28 08:01:51;;;;;;;6.35;2.88;;;;;;;;;;5077991;28;20298;-86
2022/01/28 08:04:18;;;;;;;17.33;4.75;;;;;;;;;;5077520;28;20774;-86
2022/01/28 08:06:47;;;;;;;8.27;3.88;;;;;;;;;;5077592;28;20643;-85
2022/01/28 08:09:14;;;;;;;10.57;3.03;;;;;;;;;;5078183;28;20201;-85
2022/01/28 08:11:41;;;;;;;7.70;2.33;;;;;;;;;;5077820;28;20201;-86
2022/01/28 08:14:09;;;;;;;6.90;2.63;;;;;;;;;;5077630;28;20386;-86
2022/01/28 08:16:36;;;;;;;8.27;3.17;;;;;;;;;;5076571;28;20221;-85
2022/01/28 08:19:04;;;;;;;11.75;3.20;;;;;;;;;;5077467;28;20201;-84
2022/01/28 08:21:31;;;;;;;8.95;3.28;;;;;;;;;;5076718;28;20213;-85
2022/01/28 08:24:00;;;;;;;8.00;2.80;;;;;;;;;;5077298;28;20205;-84
2022/01/28 08:26:27;;;;;;;9.70;2.60;;;;;;;;;;5076616;28;20205;-85
2022/01/28 08:28:54;;;;;;;12.98;3.53;;;;;;;;;;5082451;28;20201;-86
2022/01/28 08:31:22;;;;;;;6.85;3.13;;;;;;;;;;5097211;28;20655;-86
2022/01/28 08:33:49;;;;;;;8.32;3.70;;;;;;;;;;5097359;28;20204;-85
2022/01/28 08:36:17;;;;;;;18.50;3.75;;;;;;;;;;5096879;28;20253;-84
2022/01/28 08:38:46;;;;;;;9.38;3.47;;;;;;;;;;5096685;28;20221;-87
2022/01/28 08:41:15;;;;;;;4.85;2.55;;;;;;;;;;5096869;28;20227;-83
2022/01/28 08:43:43;;;;;;;13.27;4.32;;;;;;;;;;5096445;28;20196;-83
2022/01/28 08:46:11;;;;;;;8.23;2.53;;;;;;;;;;5096881;28;20200;-82
2022/01/28 08:48:39;;;;;;;6.00;2.55;;;;;;;;;;5097055;28;20711;-84
2022/01/28 08:51:07;;;;;;;10.02;2.85;;;;;;;;;;5097951;28;20626;-83
2022/01/28 08:53:36;;;;;;;10.25;3.22;;;;;;;;;;5096679;28;20196;-83
2022/01/28 08:56:04;;;;;;;6.95;2.42;;;;;;;;;;5096980;28;20196;-84
2022/01/28 08:58:32;;;;;;;7.95;2.92;;;;;;;;;;5096539;28;20220;-84
2022/01/28 09:01:06;;;;;;;9.68;2.70;;;;;;;;;;5097199;28;20192;-84
2022/01/28 09:03:33;;;;;;;9.93;2.80;;;;;;;;;;5096616;28;20611;-85
2022/01/28 09:06:01;;;;;;;12.18;3.00;;;;;;;;;;5096573;28;20249;-84
2022/01/28 09:08:28;;;;;;;6.65;2.60;;;;;;;;;;5095353;28;20269;-84
2022/01/28 09:11:08;;;;;;;7.45;3.15;;;;;;;;;;5088445;28;20197;-84
2022/01/28 09:13:38;;;;;;;8.30;3.70;;;;;;;;;;5076388;28;20200;-84
2022/01/28 09:16:06;;;;;;;17.63;4.93;;;;;;;;;;5087357;28;20193;-84
2022/01/28 09:18:34;;;;;;;6.35;2.20;;;;;;;;;;5095409;28;20224;-84
2022/01/28 09:21:01;;;;;;;14.50;4.93;;;;;;;;;;5095834;28;20208;-84
2022/01/28 09:23:29;;;;;;;6.50;2.83;;;;;;;;;;5095167;28;20205;-84
2022/01/28 09:25:56;;;;;;;10.18;2.53;;;;;;;;;;5095332;28;20207;-84
2022/01/28 09:28:23;;;;;;;5.18;2.22;;;;;;;;;;5081888;28;20221;-84
2022/01/28 09:30:53;;;;;;;7.80;2.90;;;;;;;;;;5074606;28;20231;-84
2022/01/28 09:33:20;;;;;;;9.45;3.92;;;;;;;;;;5073572;28;20208;-84
2022/01/28 09:35:48;;;;;;;8.43;2.17;;;;;;;;;;5075093;28;20730;-85
2022/01/28 09:38:16;;;;;;;13.57;3.95;;;;;;;;;;5073864;28;20221;-84
2022/01/28 09:40:44;;;;;;;11.70;3.35;;;;;;;;;;5073938;28;20197;-85
2022/01/28 09:43:11;;;;;;;13.10;4.05;;;;;;;;;;5074697;28;20696;-86
2022/01/28 09:45:38;;;;;;;9.20;3.42;;;;;;;;;;5074366;28;20201;-85
2022/01/28 09:48:07;;;;;;;8.13;3.55;;;;;;;;;;5076000;28;20217;-84
2022/01/28 09:50:35;;;;;;;8.13;2.58;;;;;;;;;;5075704;28;20216;-85
2022/01/28 09:53:04;;;;;;;11.75;3.47;;;;;;;;;;5075976;28;20196;-86
2022/01/28 09:55:31;;;;;;;7.35;2.65;;;;;;;;;;5076479;28;20679;-86
2022/01/28 09:58:00;;;;;;;18.63;3.85;;;;;;;;;;5076196;28;20228;-85
2022/01/28 10:00:30;;;;;;;11.50;2.95;;;;;;;;;;5077318;28;20247;-86
2022/01/28 10:03:00;;;;;;;7.07;2.63;;;;;;;;;;5083262;28;20189;-85
2022/01/28 10:05:31;;;;;;;8.88;4.47;;;;;;;;;;5075028;28;20254;-85
2022/01/28 10:08:10;;;;;;;10.85;3.63;;;;;;;;;;5088918;28;20691;-86
2022/01/28 10:10:53;;;;;;;10.05;3.25;;;;;;;;;;5095808;28;20200;-85
2022/01/28 10:13:26;;;;;;;14.68;4.22;;;;;;;;;;5095687;28;20191;-86
2022/01/28 10:15:58;;;;;;;6.88;3.28;;;;;;;;;;5086493;28;20208;-85
2022/01/28 10:18:47;;;;;;;10.00;3.10;;;;;;;;;;5075332;28;20228;-86
2022/01/28 10:21:32;;;;;;;9.88;2.55;;;;;;;;;;5054638;28;20174;-86
2022/01/28 10:24:09;;;;;;;8.60;2.85;;;;;;;;;;5053854;28;20190;-86
2022/01/28 10:26:54;;;;;;;5.47;2.20;;;;;;;;;;5053368;28;20651;-86
2022/01/28 10:29:28;;;;;;;7.68;3.40;;;;;;;;;;5071925;28;20207;-86
2022/01/28 10:31:59;;;;;;;9.77;2.85;;;;;;;;;;5074957;28;20197;-86
2022/01/28 10:34:31;;;;;;;7.53;3.13;;;;;;;;;;5075476;28;20195;-85
2022/01/28 10:37:20;;;;;;;5.50;2.00;;;;;;;;;;5075083;28;20229;-86
2022/01/28 10:39:53;;;;;;;7.93;2.83;;;;;;;;;;5076247;28;20232;-85
2022/01/28 10:42:33;;;;;;;8.43;2.40;;;;;;;;;;5070900;28;20208;-85
2022/01/28 10:45:09;;;;;;;10.15;3.00;;;;;;;;;;5066942;28;20204;-87
2022/01/28 10:47:39;;;;;;;11.05;3.22;;;;;;;;;;5078379;28;20244;-87
2022/01/28 10:50:25;;;;;;;9.40;3.10;;;;;;;;;;5077316;28;20197;-87
2022/01/28 10:53:07;;;;;;;8.07;3.28;;;;;;;;;;5077005;28;20192;-87
2022/01/28 10:55:37;;;;;;;7.28;3.65;;;;;;;;;;5058303;28;20194;-87
2022/01/28 10:58:07;;;;;;;6.45;3.10;;;;;;;;;;5077387;28;20235;-87
2022/01/28 11:00:37;;;;;;;8.77;3.17;;;;;;;;;;5076492;28;20205;-87
2022/01/28 11:03:08;;;;;;;9.85;3.13;;;;;;;;;;5076566;28;20572;-86
2022/01/28 11:05:37;;;;;;;7.78;2.88;;;;;;;;;;5076174;28;20673;-87
2022/01/28 11:08:17;;;;;;;11.43;4.13;;;;;;;;;;5078468;28;20231;-86
2022/01/28 11:10:47;;;;;;;7.43;3.60;;;;;;;;;;5075948;28;20263;-86
2022/01/28 11:13:14;;;;;;;13.10;5.05;;;;;;;;;;5076266;28;20227;-87
2022/01/28 11:15:42;;;;;;;5.68;3.30;;;;;;;;;;5076136;28;20208;-87
2022/01/28 11:18:12;;;;;;;6.55;3.47;;;;;;;;;;5077132;28;20584;-86
2022/01/28 11:20:44;;;;;;;8.15;3.85;;;;;;;;;;5076795;28;20280;-86
2022/01/28 11:23:24;;;;;;;10.93;3.00;;;;;;;;;;5076074;28;20194;-86
2022/01/28 11:26:07;;;;;;;10.05;4.22;;;;;;;;;;5076809;28;20212;-87
2022/01/28 11:28:46;;;;;;;10.02;2.85;;;;;;;;;;5076289;28;20711;-89
2022/01/28 11:31:14;;;;;;;8.00;3.13;;;;;;;;;;5076581;28;20200;-90
2022/01/28 11:33:51;;;;;;;6.32;3.25;;;;;;;;;;5076145;28;20216;-89
2022/01/28 11:36:33;;;;;;;9.32;3.28;;;;;;;;;;5076248;28;20188;-86
2022/01/28 11:40:03;;;;;;;5.95;3.08;;;;;;;;;;5083035;28;20233;-89
2022/01/28 11:42:33;;;;;;;9.73;2.58;;;;;;;;;;5065204;28;20216;-88
2022/01/28 11:45:02;;;;;;;10.20;3.35;;;;;;;;;;5084056;28;20205;-88
2022/01/28 11:47:46;;;;;;;9.93;2.83;;;;;;;;;;5084348;28;20236;-85
2022/01/28 11:50:16;;;;;;;10.57;5.68;;;;;;;;;;5083492;28;20207;-86
2022/01/28 11:52:45;;;;;;;8.50;4.57;;;;;;;;;;5078752;28;20576;-87
2022/01/28 11:55:32;;;;;;;16.35;7.07;;;;;;;;;;5076731;28;20212;-85
2022/01/28 11:58:04;;;;;;;13.18;3.47;;;;;;;;;;5064376;28;20232;-86
2022/01/28 12:00:34;;;;;;;6.97;3.75;;;;;;;;;;5076728;28;20697;-86
2022/01/28 12:03:02;;;;;;;6.45;3.67;;;;;;;;;;5077694;28;20201;-83
2022/01/28 12:06:07;;;;;;;5.57;2.88;;;;;;;;;;5077438;28;20201;-84
2022/01/28 12:08:35;;;;;;;6.57;3.10;;;;;;;;;;5071857;28;20307;-84
2022/01/28 12:11:07;;;;;;;8.57;3.88;;;;;;;;;;5077646;28;20197;-85
2022/01/28 12:14:01;;;;;;;9.20;5.00;;;;;;;;;;5070382;28;20212;-86
2022/01/28 12:16:32;;;;;;;7.50;2.92;;;;;;;;;;5076684;28;20309;-87
2022/01/28 12:19:02;;;;;;;8.75;3.03;;;;;;;;;;5076889;28;20235;-85
2022/01/28 12:21:34;;;;;;;10.13;3.08;;;;;;;;;;5076320;28;20244;-86
2022/01/28 12:24:32;;;;;;;9.63;2.72;;;;;;;;;;5076517;28;20205;-86
2022/01/28 12:27:02;;;;;;;10.43;2.97;;;;;;;;;;5076320;28;20251;-86
2022/01/28 12:29:33;;;;;;;7.70;3.15;;;;;;;;;;5076218;28;20672;-86
2022/01/28 12:32:02;;;;;;;8.05;2.95;;;;;;;;;;5075020;28;20197;-86
2022/01/28 12:34:29;;;;;;;8.85;3.47;;;;;;;;;;5070159;28;20660;-84
2022/01/28 12:36:58;;;;;;;7.55;3.67;;;;;;;;;;5075915;28;20225;-85
2022/01/28 12:39:36;;;;;;;9.57;3.25;;;;;;;;;;5074447;28;20225;-85
2022/01/28 12:42:09;;;;;;;7.53;3.22;;;;;;;;;;5073987;28;20235;-85
2022/01/28 12:44:38;;;;;;;7.07;2.92;;;;;;;;;;5076108;28;20217;-86
2022/01/28 12:47:09;;;;;;;8.32;3.20;;;;;;;;;;5074947;28;20251;-86
2022/01/28 12:49:39;;;;;;;7.78;3.13;;;;;;;;;;5075050;28;20259;-86
2022/01/28 12:52:09;;;;;;;9.18;3.60;;;;;;;;;;5073821;28;20232;-85
2022/01/28 12:54:42;;;;;;;11.57;3.90;;;;;;;;;;5069228;28;20208;-86
2022/01/28 12:57:11;;;;;;;10.88;4.20;;;;;;;;;;5080046;28;20239;-87
2022/01/28 12:59:42;;;;;;;9.35;3.88;;;;;;;;;;5076614;28;20236;-85
2022/01/28 13:02:10;;;;;;;7.10;3.67;;;;;;;;;;5075619;28;20205;-85
2022/01/28 13:04:59;;;;;;;7.72;2.78;;;;;;;;;;5075307;28;20673;-86
2022/01/28 13:10:20;;;;;;;7.93;2.90;;;;;;;;;;5075924;28;20207;-86
2022/01/28 13:12:47;;;;;;;7.95;2.65;;;;;;;;;;5075982;28;20227;-85
2022/01/28 13:15:17;;;;;;;9.90;3.63;;;;;;;;;;5077510;28;20200;-86
2022/01/28 13:17:54;;;;;;;8.38;2.58;;;;;;;;;;5075394;28;20236;-85
2022/01/28 13:20:22;;;;;;;9.10;3.38;;;;;;;;;;5075192;28;20289;-84
2022/01/28 13:22:53;;;;;;;6.65;3.70;;;;;;;;;;5072972;28;20217;-86
2022/01/28 13:25:24;;;;;;;3.83;2.50;;;;;;;;;;5074031;28;20208;-85
2022/01/28 13:27:57;;;;;;;4.55;2.60;;;;;;;;;;5074366;28;20593;-85
2022/01/28 13:30:27;;;;;;;10.10;4.05;;;;;;;;;;5074761;28;20318;-85
2022/01/28 13:33:01;;;;;;;17.75;3.65;;;;;;;;;;5074365;28;20205;-83
2022/01/28 13:35:28;;;;;;;10.25;3.20;;;;;;;;;;5075032;28;20204;-85
2022/01/28 13:38:00;;;;;;;7.13;2.92;;;;;;;;;;5074456;28;20723;-84
2022/01/28 13:40:35;;;;;;;8.63;3.65;;;;;;;;;;5074572;28;20220;-84
2022/01/28 13:43:05;;;;;;;13.98;4.13;;;;;;;;;;5068524;28;20287;-86
2022/01/28 13:45:37;;;;;;;9.15;3.40;;;;;;;;;;5080736;28;20232;-85
2022/01/28 13:48:06;;;;;;;8.57;3.83;;;;;;;;;;5074690;28;20339;-85
2022/01/28 13:50:36;;;;;;;26.77;4.22;;;;;;;;;;5075417;28;20216;-84
2022/01/28 13:55:55;;;;;;;10.50;3.10;;;;;;;;;;5074641;28;20211;-84
2022/01/28 13:58:23;;;;;;;6.50;2.80;;;;;;;;;;5072222;28;20221;-85
2022/01/28 14:00:53;;;;;;;12.40;3.03;;;;;;;;;;5071985;28;20221;-84
2022/01/28 14:03:22;;;;;;;8.85;3.03;;;;;;;;;;5070275;28;20197;-84
2022/01/28 14:05:53;;;;;;;8.93;3.22;;;;;;;;;;5073960;28;20614;-84
2022/01/28 14:08:40;;;;;;;9.27;3.03;;;;;;;;;;5074553;28;20232;-84
2022/01/28 14:11:27;;;;;;;9.80;3.38;;;;;;;;;;5074584;28;20630;-84
2022/01/28 14:14:24;;;;;;;6.55;3.13;;;;;;;;;;5073392;28;20204;-84
2022/01/28 14:16:55;;;;;;;7.53;2.65;;;;;;;;;;5075992;28;20262;-84
2022/01/28 14:19:26;;;;;;;6.75;3.15;;;;;;;;;;5074027;28;20656;-84
2022/01/28 14:21:54;;;;;;;5.57;2.55;;;;;;;;;;5073153;28;20247;-85
2022/01/28 14:24:26;;;;;;;6.28;2.00;;;;;;;;;;5074812;28;20549;-86
2022/01/28 14:26:59;;;;;;;11.95;3.65;;;;;;;;;;5074509;28;20315;-85
2022/01/28 14:29:48;;;;;;;10.77;3.42;;;;;;;;;;5074424;28;20235;-86
2022/01/28 14:32:19;;;;;;;10.77;3.28;;;;;;;;;;5073965;28;20223;-84
2022/01/28 14:34:48;;;;;;;6.78;2.42;;;;;;;;;;5067587;28;20209;-85
2022/01/28 14:37:18;;;;;;;8.98;2.65;;;;;;;;;;5073747;28;20235;-85
2022/01/28 14:39:46;;;;;;;10.55;3.75;;;;;;;;;;5074046;28;20216;-85
2022/01/28 14:42:15;;;;;;;7.38;2.78;;;;;;;;;;5073788;28;20672;-85
2022/01/28 14:44:45;;;;;;;5.60;2.97;;;;;;;;;;5073885;28;20609;-85
2022/01/28 14:47:13;;;;;;;10.45;2.22;;;;;;;;;;5073695;28;20220;-85
2022/01/28 14:49:42;;;;;;;3.17;1.88;;;;;;;;;;5073103;28;20212;-86
2022/01/28 14:52:17;;;;;;;5.00;2.85;;;;;;;;;;5073581;28;20204;-83
2022/01/28 14:54:44;;;;;;;7.25;2.47;;;;;;;;;;5073908;28;20200;-86
2022/01/28 14:57:12;;;;;;;5.47;3.05;;;;;;;;;;5075658;28;20224;-85
2022/01/28 14:59:41;;;;;;;9.90;3.30;;;;;;;;;;5073975;28;20209;-85
2022/01/28 15:02:12;;;;;;;6.95;3.30;;;;;;;;;;5074008;28;20236;-85
2022/01/28 15:04:41;;;;;;;4.93;2.97;;;;;;;;;;5074259;28;20209;-85
2022/01/28 15:07:09;;;;;;;7.45;2.40;;;;;;;;;;5074035;28;20225;-85
2022/01/28 15:09:40;;;;;;;6.63;2.08;;;;;;;;;;5073858;28;20209;-85
2022/01/28 15:12:09;;;;;;;5.32;2.35;;;;;;;;;;5073785;28;20247;-84
2022/01/28 15:14:37;;;;;;;4.57;2.35;;;;;;;;;;5073795;28;20213;-84
2022/01/28 15:17:06;;;;;;;6.10;3.03;;;;;;;;;;5074307;28;20237;-85
2022/01/28 15:19:33;;;;;;;5.55;2.65;;;;;;;;;;5073505;28;20205;-85
2022/01/28 15:22:02;;;;;;;5.72;2.50;;;;;;;;;;5073891;28;20697;-85
2022/01/28 15:24:30;;;;;;;9.48;4.05;;;;;;;;;;5073918;28;20616;-85
2022/01/28 15:26:57;;;;;;;11.57;6.85;;;;;;;;;;5077390;28;20228;-86
2022/01/28 15:35:11;;;;;;;6.30;3.35;;;;;;;;;;5077166;28;20301;-85
2022/01/28 15:37:40;;;;;;;7.85;3.45;;;;;;;;;;5077107;28;20225;-85
2022/01/28 15:40:09;;;;;;;6.43;2.70;;;;;;;;;;5076975;28;20207;-85
2022/01/28 15:42:36;;;;;;;6.82;4.45;;;;;;;;;;5077458;28;20229;-85
2022/01/28 15:45:04;;;;;;;7.68;4.65;;;;;;;;;;5079751;28;20201;-84
2022/01/28 15:47:33;;;;;;;10.30;4.40;;;;;;;;;;5078785;28;20229;-85
2022/01/28 15:50:00;;;;;;;4.43;2.58;;;;;;;;;;5077125;28;20209;-85
2022/01/28 15:52:27;;;;;;;7.55;3.30;;;;;;;;;;5076919;28;20213;-85
2022/01/28 15:54:56;;;;;;;5.97;2.40;;;;;;;;;;5076924;28;20215;-85
2022/01/28 15:57:23;;;;;;;6.07;2.72;;;;;;;;;;5076512;28;20231;-85
2022/01/28 15:59:51;;;;;;;8.52;3.00;;;;;;;;;;5076548;28;20205;-85
2022/01/28 16:02:18;;;;;;;5.60;2.22;;;;;;;;;;5076326;28;20221;-84